sensor_id;sensor_type;location;lat;lon;timestamp;P1;durP1;ratioP1;P2;durP2;ratioP2
4450;SDS011;2238;50.180;9.230;2023-02-22T00:01:32;7.80;;;7.00;;
4450;SDS011;2238;50.180;9.230;2023-02-22T00:04:49;7.53;;;6.83;;
4450;SDS011;2238;50.180;9.230;2023-02-22T00:07:50;8.00;;;7.20;;
4450;SDS011;2238;50.180;9.230;2023-02-22T00:10:51;7.53;;;6.23;;
4450;SDS011;2238;50.180;9.230;2023-02-22T00:13:51;7.80;;;6.30;;
4450;SDS011;2238;50.180;9.230;2023-02-22T00:16:56;5.67;;;4.80;;
4450;SDS011;2238;50.180;9.230;2023-02-22T00:19:58;5.80;;;4.93;;
4450;SDS011;2238;50.180;9.230;2023-02-22T00:22:59;8.90;;;5.10;;
4450;SDS011;2238;50.180;9.230;2023-02-22T00:26:00;5.27;;;4.77;;
4450;SDS011;2238;50.180;9.230;2023-02-22T00:29:00;5.43;;;4.93;;
4450;SDS011;2238;50.180;9.230;2023-02-22T00:32:01;6.40;;;5.70;;
4450;SDS011;2238;50.180;9.230;2023-02-22T00:35:02;5.70;;;5.20;;
4450;SDS011;2238;50.180;9.230;2023-02-22T00:38:07;6.23;;;4.40;;
4450;SDS011;2238;50.180;9.230;2023-02-22T00:41:08;7.13;;;6.43;;
4450;SDS011;2238;50.180;9.230;2023-02-22T00:44:09;6.20;;;5.57;;
4450;SDS011;2238;50.180;9.230;2023-02-22T00:47:09;6.80;;;5.37;;
4450;SDS011;2238;50.180;9.230;2023-02-22T00:50:10;7.00;;;6.07;;
4450;SDS011;2238;50.180;9.230;2023-02-22T00:53:12;5.97;;;5.37;;
4450;SDS011;2238;50.180;9.230;2023-02-22T00:56:12;5.97;;;5.37;;
4450;SDS011;2238;50.180;9.230;2023-02-22T00:59:13;8.33;;;5.57;;
4450;SDS011;2238;50.180;9.230;2023-02-22T01:02:14;6.97;;;6.03;;
4450;SDS011;2238;50.180;9.230;2023-02-22T01:05:15;7.80;;;6.20;;
4450;SDS011;2238;50.180;9.230;2023-02-22T01:08:17;6.90;;;5.37;;
4450;SDS011;2238;50.180;9.230;2023-02-22T01:11:18;8.33;;;6.07;;
4450;SDS011;2238;50.180;9.230;2023-02-22T01:14:18;6.77;;;5.93;;
4450;SDS011;2238;50.180;9.230;2023-02-22T01:17:20;6.60;;;5.63;;
4450;SDS011;2238;50.180;9.230;2023-02-22T01:20:21;6.97;;;5.50;;
4450;SDS011;2238;50.180;9.230;2023-02-22T01:23:22;6.30;;;5.70;;
4450;SDS011;2238;50.180;9.230;2023-02-22T01:26:22;7.00;;;5.90;;
4450;SDS011;2238;50.180;9.230;2023-02-22T01:29:23;6.63;;;5.87;;
4450;SDS011;2238;50.180;9.230;2023-02-22T01:32:24;7.67;;;5.93;;
4450;SDS011;2238;50.180;9.230;2023-02-22T01:35:26;6.53;;;5.83;;
4450;SDS011;2238;50.180;9.230;2023-02-22T01:38:28;7.33;;;6.07;;
4450;SDS011;2238;50.180;9.230;2023-02-22T01:41:29;7.73;;;5.80;;
4450;SDS011;2238;50.180;9.230;2023-02-22T01:44:31;8.50;;;7.17;;
4450;SDS011;2238;50.180;9.230;2023-02-22T01:47:33;7.57;;;5.87;;
4450;SDS011;2238;50.180;9.230;2023-02-22T01:50:35;5.60;;;4.97;;
4450;SDS011;2238;50.180;9.230;2023-02-22T01:53:44;7.57;;;5.80;;
4450;SDS011;2238;50.180;9.230;2023-02-22T01:56:53;7.43;;;6.10;;
4450;SDS011;2238;50.180;9.230;2023-02-22T02:00:01;9.60;;;6.20;;
4450;SDS011;2238;50.180;9.230;2023-02-22T02:03:11;8.80;;;6.20;;
4450;SDS011;2238;50.180;9.230;2023-02-22T02:06:17;7.20;;;6.50;;
4450;SDS011;2238;50.180;9.230;2023-02-22T02:09:27;13.50;;;8.43;;
4450;SDS011;2238;50.180;9.230;2023-02-22T02:12:49;7.70;;;6.37;;
4450;SDS011;2238;50.180;9.230;2023-02-22T02:15:52;7.40;;;5.93;;
4450;SDS011;2238;50.180;9.230;2023-02-22T02:18:54;8.70;;;6.27;;
4450;SDS011;2238;50.180;9.230;2023-02-22T02:32:44;6.40;;;5.73;;
4450;SDS011;2238;50.180;9.230;2023-02-22T02:40:03;8.67;;;5.93;;
4450;SDS011;2238;50.180;9.230;2023-02-22T02:42:41;6.00;;;5.23;;
4450;SDS011;2238;50.180;9.230;2023-02-22T02:45:52;6.63;;;6.03;;
4450;SDS011;2238;50.180;9.230;2023-02-22T02:48:58;6.43;;;5.80;;
4450;SDS011;2238;50.180;9.230;2023-02-22T02:52:03;7.30;;;5.70;;
4450;SDS011;2238;50.180;9.230;2023-02-22T02:55:06;6.30;;;5.70;;
4450;SDS011;2238;50.180;9.230;2023-02-22T02:58:15;9.10;;;7.55;;
4450;SDS011;2238;50.180;9.230;2023-02-22T03:11:15;7.80;;;5.70;;
4450;SDS011;2238;50.180;9.230;2023-02-22T03:14:23;7.40;;;6.43;;
4450;SDS011;2238;50.180;9.230;2023-02-22T03:17:34;9.70;;;6.83;;
4450;SDS011;2238;50.180;9.230;2023-02-22T03:20:49;7.20;;;6.10;;
4450;SDS011;2238;50.180;9.230;2023-02-22T03:27:22;8.20;;;6.40;;
4450;SDS011;2238;50.180;9.230;2023-02-22T03:30:35;8.40;;;6.77;;
4450;SDS011;2238;50.180;9.230;2023-02-22T03:33:40;7.97;;;6.40;;
4450;SDS011;2238;50.180;9.230;2023-02-22T03:36:46;9.20;;;6.97;;
4450;SDS011;2238;50.180;9.230;2023-02-22T03:39:52;8.00;;;7.10;;
4450;SDS011;2238;50.180;9.230;2023-02-22T03:42:56;7.70;;;6.77;;
4450;SDS011;2238;50.180;9.230;2023-02-22T03:46:02;8.70;;;7.63;;
4450;SDS011;2238;50.180;9.230;2023-02-22T03:52:39;10.53;;;7.50;;
4450;SDS011;2238;50.180;9.230;2023-02-22T03:55:40;9.47;;;7.77;;
4450;SDS011;2238;50.180;9.230;2023-02-22T03:58:41;9.27;;;7.90;;
4450;SDS011;2238;50.180;9.230;2023-02-22T04:01:44;8.40;;;7.50;;
4450;SDS011;2238;50.180;9.230;2023-02-22T04:04:45;7.67;;;6.60;;
4450;SDS011;2238;50.180;9.230;2023-02-22T04:07:46;8.10;;;7.30;;
4450;SDS011;2238;50.180;9.230;2023-02-22T04:10:46;11.07;;;7.47;;
4450;SDS011;2238;50.180;9.230;2023-02-22T04:13:47;9.63;;;7.40;;
4450;SDS011;2238;50.180;9.230;2023-02-22T04:16:48;8.67;;;7.77;;
4450;SDS011;2238;50.180;9.230;2023-02-22T04:19:48;10.07;;;8.07;;
4450;SDS011;2238;50.180;9.230;2023-02-22T04:22:53;11.13;;;8.60;;
4450;SDS011;2238;50.180;9.230;2023-02-22T04:25:54;9.70;;;8.40;;
4450;SDS011;2238;50.180;9.230;2023-02-22T04:28:55;9.30;;;8.30;;
4450;SDS011;2238;50.180;9.230;2023-02-22T04:31:55;10.53;;;8.70;;
4450;SDS011;2238;50.180;9.230;2023-02-22T04:34:56;10.40;;;8.00;;
4450;SDS011;2238;50.180;9.230;2023-02-22T04:37:56;9.90;;;8.50;;
4450;SDS011;2238;50.180;9.230;2023-02-22T04:40:57;11.03;;;8.53;;
4450;SDS011;2238;50.180;9.230;2023-02-22T04:43:57;10.73;;;8.43;;
4450;SDS011;2238;50.180;9.230;2023-02-22T04:46:58;12.90;;;9.50;;
4450;SDS011;2238;50.180;9.230;2023-02-22T04:49:58;11.77;;;8.43;;
4450;SDS011;2238;50.180;9.230;2023-02-22T04:52:59;12.03;;;9.37;;
4450;SDS011;2238;50.180;9.230;2023-02-22T04:56:00;10.60;;;8.90;;
4450;SDS011;2238;50.180;9.230;2023-02-22T04:59:00;12.20;;;9.10;;
4450;SDS011;2238;50.180;9.230;2023-02-22T05:02:01;13.10;;;10.73;;
4450;SDS011;2238;50.180;9.230;2023-02-22T05:05:02;15.50;;;11.03;;
4450;SDS011;2238;50.180;9.230;2023-02-22T05:08:02;13.27;;;10.60;;
4450;SDS011;2238;50.180;9.230;2023-02-22T05:11:03;12.07;;;10.40;;
4450;SDS011;2238;50.180;9.230;2023-02-22T05:14:04;13.10;;;10.50;;
4450;SDS011;2238;50.180;9.230;2023-02-22T05:17:05;11.30;;;9.63;;
4450;SDS011;2238;50.180;9.230;2023-02-22T05:20:06;14.60;;;10.60;;
4450;SDS011;2238;50.180;9.230;2023-02-22T05:23:07;15.17;;;11.00;;
4450;SDS011;2238;50.180;9.230;2023-02-22T05:26:08;13.10;;;10.20;;
4450;SDS011;2238;50.180;9.230;2023-02-22T05:29:09;13.13;;;10.67;;
4450;SDS011;2238;50.180;9.230;2023-02-22T05:32:11;14.10;;;10.27;;
4450;SDS011;2238;50.180;9.230;2023-02-22T05:35:12;15.43;;;10.83;;
4450;SDS011;2238;50.180;9.230;2023-02-22T05:38:12;17.83;;;11.40;;
4450;SDS011;2238;50.180;9.230;2023-02-22T05:41:14;16.70;;;12.07;;
4450;SDS011;2238;50.180;9.230;2023-02-22T05:44:14;15.93;;;11.80;;
4450;SDS011;2238;50.180;9.230;2023-02-22T05:47:15;16.63;;;12.40;;
4450;SDS011;2238;50.180;9.230;2023-02-22T05:50:15;13.17;;;11.77;;
4450;SDS011;2238;50.180;9.230;2023-02-22T05:53:17;14.53;;;11.83;;
4450;SDS011;2238;50.180;9.230;2023-02-22T05:56:21;14.43;;;11.03;;
4450;SDS011;2238;50.180;9.230;2023-02-22T05:59:24;12.17;;;10.87;;
4450;SDS011;2238;50.180;9.230;2023-02-22T06:02:24;13.50;;;12.20;;
4450;SDS011;2238;50.180;9.230;2023-02-22T06:05:25;11.93;;;10.73;;
4450;SDS011;2238;50.180;9.230;2023-02-22T06:08:26;13.03;;;11.60;;
4450;SDS011;2238;50.180;9.230;2023-02-22T06:11:27;13.50;;;12.10;;
4450;SDS011;2238;50.180;9.230;2023-02-22T06:14:27;11.90;;;10.70;;
4450;SDS011;2238;50.180;9.230;2023-02-22T06:17:28;12.43;;;11.13;;
4450;SDS011;2238;50.180;9.230;2023-02-22T06:20:29;12.40;;;10.13;;
4450;SDS011;2238;50.180;9.230;2023-02-22T06:23:31;11.87;;;9.80;;
4450;SDS011;2238;50.180;9.230;2023-02-22T06:26:32;11.37;;;9.30;;
4450;SDS011;2238;50.180;9.230;2023-02-22T06:29:32;12.67;;;9.37;;
4450;SDS011;2238;50.180;9.230;2023-02-22T06:32:33;10.53;;;8.93;;
4450;SDS011;2238;50.180;9.230;2023-02-22T06:35:33;9.60;;;8.60;;
4450;SDS011;2238;50.180;9.230;2023-02-22T06:38:34;13.73;;;9.87;;
4450;SDS011;2238;50.180;9.230;2023-02-22T06:41:38;12.67;;;9.90;;
4450;SDS011;2238;50.180;9.230;2023-02-22T06:44:40;12.50;;;10.60;;
4450;SDS011;2238;50.180;9.230;2023-02-22T06:47:40;17.90;;;11.60;;
4450;SDS011;2238;50.180;9.230;2023-02-22T06:50:41;17.90;;;11.60;;
4450;SDS011;2238;50.180;9.230;2023-02-22T06:53:41;18.30;;;12.43;;
4450;SDS011;2238;50.180;9.230;2023-02-22T06:56:42;15.53;;;12.07;;
4450;SDS011;2238;50.180;9.230;2023-02-22T06:59:43;15.03;;;12.03;;
4450;SDS011;2238;50.180;9.230;2023-02-22T07:02:44;16.57;;;12.03;;
4450;SDS011;2238;50.180;9.230;2023-02-22T07:05:45;16.97;;;11.97;;
4450;SDS011;2238;50.180;9.230;2023-02-22T07:08:47;17.73;;;13.93;;
4450;SDS011;2238;50.180;9.230;2023-02-22T07:11:48;20.90;;;14.47;;
4450;SDS011;2238;50.180;9.230;2023-02-22T07:14:53;18.80;;;14.47;;
4450;SDS011;2238;50.180;9.230;2023-02-22T07:17:55;18.37;;;15.83;;
4450;SDS011;2238;50.180;9.230;2023-02-22T07:20:56;15.93;;;12.83;;
4450;SDS011;2238;50.180;9.230;2023-02-22T07:23:57;14.97;;;13.10;;
4450;SDS011;2238;50.180;9.230;2023-02-22T07:26:59;17.77;;;15.97;;
4450;SDS011;2238;50.180;9.230;2023-02-22T07:30:01;30.97;;;22.70;;
4450;SDS011;2238;50.180;9.230;2023-02-22T07:33:03;25.30;;;20.13;;
4450;SDS011;2238;50.180;9.230;2023-02-22T07:36:08;17.47;;;15.00;;
4450;SDS011;2238;50.180;9.230;2023-02-22T07:39:08;17.90;;;14.93;;
4450;SDS011;2238;50.180;9.230;2023-02-22T07:42:10;18.43;;;14.97;;
4450;SDS011;2238;50.180;9.230;2023-02-22T07:45:10;16.80;;;13.67;;
4450;SDS011;2238;50.180;9.230;2023-02-22T07:48:11;18.77;;;14.70;;
4450;SDS011;2238;50.180;9.230;2023-02-22T07:51:13;16.77;;;13.10;;
4450;SDS011;2238;50.180;9.230;2023-02-22T07:54:15;19.20;;;14.93;;
4450;SDS011;2238;50.180;9.230;2023-02-22T07:57:16;17.67;;;13.47;;
4450;SDS011;2238;50.180;9.230;2023-02-22T08:00:24;18.80;;;14.30;;
4450;SDS011;2238;50.180;9.230;2023-02-22T08:03:29;19.03;;;14.47;;
4450;SDS011;2238;50.180;9.230;2023-02-22T08:06:33;17.27;;;15.37;;
4450;SDS011;2238;50.180;9.230;2023-02-22T08:09:33;25.50;;;21.70;;
4450;SDS011;2238;50.180;9.230;2023-02-22T08:12:34;20.93;;;15.80;;
4450;SDS011;2238;50.180;9.230;2023-02-22T08:15:37;18.30;;;15.77;;
4450;SDS011;2238;50.180;9.230;2023-02-22T08:18:39;16.30;;;13.03;;
4450;SDS011;2238;50.180;9.230;2023-02-22T08:21:40;15.23;;;11.67;;
4450;SDS011;2238;50.180;9.230;2023-02-22T08:24:40;13.30;;;9.57;;
4450;SDS011;2238;50.180;9.230;2023-02-22T08:27:41;12.33;;;9.60;;
4450;SDS011;2238;50.180;9.230;2023-02-22T08:30:42;12.27;;;9.83;;
4450;SDS011;2238;50.180;9.230;2023-02-22T08:33:45;9.97;;;8.10;;
4450;SDS011;2238;50.180;9.230;2023-02-22T08:36:48;10.77;;;9.00;;
4450;SDS011;2238;50.180;9.230;2023-02-22T08:39:49;9.10;;;8.00;;
4450;SDS011;2238;50.180;9.230;2023-02-22T08:42:52;15.07;;;13.33;;
4450;SDS011;2238;50.180;9.230;2023-02-22T08:45:53;8.70;;;7.73;;
4450;SDS011;2238;50.180;9.230;2023-02-22T08:48:54;10.57;;;8.47;;
4450;SDS011;2238;50.180;9.230;2023-02-22T08:51:54;9.90;;;8.03;;
4450;SDS011;2238;50.180;9.230;2023-02-22T08:54:55;9.03;;;8.07;;
4450;SDS011;2238;50.180;9.230;2023-02-22T08:57:55;11.67;;;9.17;;
4450;SDS011;2238;50.180;9.230;2023-02-22T09:00:56;11.20;;;9.10;;
4450;SDS011;2238;50.180;9.230;2023-02-22T09:03:57;12.43;;;10.47;;
4450;SDS011;2238;50.180;9.230;2023-02-22T09:06:59;17.87;;;15.93;;
4450;SDS011;2238;50.180;9.230;2023-02-22T09:09:59;15.43;;;13.83;;
4450;SDS011;2238;50.180;9.230;2023-02-22T09:13:00;17.10;;;15.50;;
4450;SDS011;2238;50.180;9.230;2023-02-22T09:16:02;16.87;;;12.93;;
4450;SDS011;2238;50.180;9.230;2023-02-22T09:19:03;15.47;;;12.77;;
4450;SDS011;2238;50.180;9.230;2023-02-22T09:22:04;15.77;;;13.63;;
4450;SDS011;2238;50.180;9.230;2023-02-22T09:25:05;16.13;;;14.43;;
4450;SDS011;2238;50.180;9.230;2023-02-22T09:28:06;15.77;;;14.07;;
4450;SDS011;2238;50.180;9.230;2023-02-22T09:31:08;18.57;;;12.90;;
4450;SDS011;2238;50.180;9.230;2023-02-22T09:34:09;13.80;;;11.53;;
4450;SDS011;2238;50.180;9.230;2023-02-22T09:37:12;15.00;;;12.40;;
4450;SDS011;2238;50.180;9.230;2023-02-22T09:40:16;16.73;;;11.50;;
4450;SDS011;2238;50.180;9.230;2023-02-22T09:46:52;14.80;;;11.87;;
4450;SDS011;2238;50.180;9.230;2023-02-22T09:50:02;12.40;;;10.90;;
4450;SDS011;2238;50.180;9.230;2023-02-22T09:56:31;12.03;;;10.90;;
4450;SDS011;2238;50.180;9.230;2023-02-22T09:59:39;10.83;;;9.83;;
4450;SDS011;2238;50.180;9.230;2023-02-22T10:06:03;12.70;;;11.47;;
4450;SDS011;2238;50.180;9.230;2023-02-22T10:09:13;17.80;;;12.17;;
4450;SDS011;2238;50.180;9.230;2023-02-22T10:12:22;11.80;;;10.70;;
4450;SDS011;2238;50.180;9.230;2023-02-22T10:19:21;11.30;;;9.63;;
4450;SDS011;2238;50.180;9.230;2023-02-22T10:26:14;13.37;;;11.83;;
4450;SDS011;2238;50.180;9.230;2023-02-22T10:32:46;14.43;;;10.87;;
4450;SDS011;2238;50.180;9.230;2023-02-22T10:35:53;11.80;;;10.60;;
4450;SDS011;2238;50.180;9.230;2023-02-22T10:38:59;11.13;;;9.93;;
4450;SDS011;2238;50.180;9.230;2023-02-22T10:42:11;10.63;;;9.53;;
4450;SDS011;2238;50.180;9.230;2023-02-22T10:45:23;10.93;;;9.73;;
4450;SDS011;2238;50.180;9.230;2023-02-22T10:48:28;12.17;;;10.87;;
4450;SDS011;2238;50.180;9.230;2023-02-22T10:51:31;14.00;;;10.70;;
4450;SDS011;2238;50.180;9.230;2023-02-22T10:54:33;11.07;;;9.97;;
4450;SDS011;2238;50.180;9.230;2023-02-22T10:57:39;12.10;;;10.77;;
4450;SDS011;2238;50.180;9.230;2023-02-22T11:00:41;11.97;;;10.33;;
4450;SDS011;2238;50.180;9.230;2023-02-22T11:03:41;13.33;;;10.73;;
4450;SDS011;2238;50.180;9.230;2023-02-22T11:06:45;10.57;;;8.90;;
4450;SDS011;2238;50.180;9.230;2023-02-22T11:09:52;10.33;;;9.27;;
4450;SDS011;2238;50.180;9.230;2023-02-22T11:12:58;10.20;;;9.10;;
4450;SDS011;2238;50.180;9.230;2023-02-22T11:16:16;9.33;;;8.00;;
4450;SDS011;2238;50.180;9.230;2023-02-22T11:22:24;10.13;;;9.13;;
4450;SDS011;2238;50.180;9.230;2023-02-22T11:25:38;9.10;;;8.10;;
4450;SDS011;2238;50.180;9.230;2023-02-22T11:28:42;9.97;;;8.70;;
4450;SDS011;2238;50.180;9.230;2023-02-22T11:31:48;10.40;;;9.40;;
4450;SDS011;2238;50.180;9.230;2023-02-22T11:34:49;10.20;;;9.20;;
4450;SDS011;2238;50.180;9.230;2023-02-22T11:37:51;10.93;;;9.30;;
4450;SDS011;2238;50.180;9.230;2023-02-22T11:44:22;10.93;;;9.83;;
4450;SDS011;2238;50.180;9.230;2023-02-22T11:47:25;11.37;;;10.17;;
4450;SDS011;2238;50.180;9.230;2023-02-22T11:50:30;13.87;;;12.27;;
4450;SDS011;2238;50.180;9.230;2023-02-22T12:01:28;11.83;;;10.37;;
4450;SDS011;2238;50.180;9.230;2023-02-22T12:17:57;12.10;;;10.80;;
4450;SDS011;2238;50.180;9.230;2023-02-22T12:21:01;12.90;;;11.57;;
4450;SDS011;2238;50.180;9.230;2023-02-22T12:24:08;13.43;;;12.07;;
4450;SDS011;2238;50.180;9.230;2023-02-22T12:31:22;14.63;;;11.80;;
4450;SDS011;2238;50.180;9.230;2023-02-22T12:34:35;13.20;;;11.30;;
4450;SDS011;2238;50.180;9.230;2023-02-22T12:41:41;17.20;;;12.90;;
4450;SDS011;2238;50.180;9.230;2023-02-22T12:44:46;15.17;;;11.70;;
4450;SDS011;2238;50.180;9.230;2023-02-22T12:48:06;15.60;;;13.40;;
4450;SDS011;2238;50.180;9.230;2023-02-22T12:51:28;15.53;;;13.83;;
4450;SDS011;2238;50.180;9.230;2023-02-22T12:54:52;14.20;;;12.70;;
4450;SDS011;2238;50.180;9.230;2023-02-22T13:01:17;15.17;;;13.70;;
4450;SDS011;2238;50.180;9.230;2023-02-22T13:04:21;16.80;;;14.00;;
4450;SDS011;2238;50.180;9.230;2023-02-22T13:07:38;18.37;;;15.73;;
4450;SDS011;2238;50.180;9.230;2023-02-22T13:24:55;18.13;;;14.90;;
4450;SDS011;2238;50.180;9.230;2023-02-22T13:28:01;16.70;;;13.97;;
4450;SDS011;2238;50.180;9.230;2023-02-22T13:51:53;22.17;;;15.40;;
4450;SDS011;2238;50.180;9.230;2023-02-22T13:55:04;17.30;;;15.30;;
4450;SDS011;2238;50.180;9.230;2023-02-22T13:58:10;18.07;;;15.93;;
4450;SDS011;2238;50.180;9.230;2023-02-22T14:01:29;16.53;;;14.80;;
4450;SDS011;2238;50.180;9.230;2023-02-22T14:04:39;18.83;;;15.00;;
4450;SDS011;2238;50.180;9.230;2023-02-22T14:07:45;17.33;;;15.00;;
4450;SDS011;2238;50.180;9.230;2023-02-22T14:10:49;23.17;;;16.63;;
4450;SDS011;2238;50.180;9.230;2023-02-22T14:17:41;20.23;;;15.83;;
4450;SDS011;2238;50.180;9.230;2023-02-22T14:20:34;17.50;;;15.60;;
4450;SDS011;2238;50.180;9.230;2023-02-22T14:23:52;18.57;;;15.97;;
4450;SDS011;2238;50.180;9.230;2023-02-22T14:27:01;18.83;;;16.93;;
4450;SDS011;2238;50.180;9.230;2023-02-22T14:30:03;20.40;;;16.27;;
4450;SDS011;2238;50.180;9.230;2023-02-22T14:36:45;22.00;;;16.10;;
4450;SDS011;2238;50.180;9.230;2023-02-22T14:39:50;18.57;;;14.97;;
4450;SDS011;2238;50.180;9.230;2023-02-22T14:42:59;19.07;;;15.80;;
4450;SDS011;2238;50.180;9.230;2023-02-22T14:46:10;16.80;;;14.77;;
4450;SDS011;2238;50.180;9.230;2023-02-22T14:49:20;16.40;;;14.50;;
4450;SDS011;2238;50.180;9.230;2023-02-22T14:52:25;16.77;;;14.53;;
4450;SDS011;2238;50.180;9.230;2023-02-22T14:55:27;20.37;;;17.10;;
4450;SDS011;2238;50.180;9.230;2023-02-22T14:58:35;18.40;;;14.90;;
4450;SDS011;2238;50.180;9.230;2023-02-22T15:01:48;21.03;;;14.77;;
4450;SDS011;2238;50.180;9.230;2023-02-22T15:04:50;17.57;;;15.57;;
4450;SDS011;2238;50.180;9.230;2023-02-22T15:08:00;21.17;;;14.97;;
4450;SDS011;2238;50.180;9.230;2023-02-22T15:11:02;20.63;;;15.33;;
4450;SDS011;2238;50.180;9.230;2023-02-22T15:14:14;14.80;;;13.20;;
4450;SDS011;2238;50.180;9.230;2023-02-22T15:17:22;16.63;;;14.30;;
4450;SDS011;2238;50.180;9.230;2023-02-22T15:20:23;16.50;;;14.30;;
4450;SDS011;2238;50.180;9.230;2023-02-22T15:23:28;20.13;;;17.53;;
4450;SDS011;2238;50.180;9.230;2023-02-22T15:26:41;19.30;;;14.53;;
4450;SDS011;2238;50.180;9.230;2023-02-22T15:29:43;17.40;;;14.07;;
4450;SDS011;2238;50.180;9.230;2023-02-22T15:32:44;18.57;;;14.10;;
4450;SDS011;2238;50.180;9.230;2023-02-22T15:35:45;19.90;;;13.77;;
4450;SDS011;2238;50.180;9.230;2023-02-22T15:38:55;14.00;;;12.30;;
4450;SDS011;2238;50.180;9.230;2023-02-22T15:45:20;16.23;;;11.00;;
4450;SDS011;2238;50.180;9.230;2023-02-22T15:48:24;12.13;;;9.40;;
4450;SDS011;2238;50.180;9.230;2023-02-22T15:51:27;10.00;;;8.87;;
4450;SDS011;2238;50.180;9.230;2023-02-22T15:54:28;9.57;;;8.43;;
4450;SDS011;2238;50.180;9.230;2023-02-22T15:57:36;9.37;;;7.90;;
4450;SDS011;2238;50.180;9.230;2023-02-22T16:00:37;8.10;;;7.17;;
4450;SDS011;2238;50.180;9.230;2023-02-22T16:03:42;7.50;;;6.43;;
4450;SDS011;2238;50.180;9.230;2023-02-22T16:06:54;12.23;;;6.43;;
4450;SDS011;2238;50.180;9.230;2023-02-22T16:10:06;10.13;;;7.63;;
4450;SDS011;2238;50.180;9.230;2023-02-22T16:13:09;11.77;;;9.80;;
4450;SDS011;2238;50.180;9.230;2023-02-22T16:16:21;11.57;;;8.27;;
4450;SDS011;2238;50.180;9.230;2023-02-22T16:19:36;12.20;;;10.10;;
4450;SDS011;2238;50.180;9.230;2023-02-22T16:22:44;11.83;;;9.30;;
4450;SDS011;2238;50.180;9.230;2023-02-22T16:26:02;15.40;;;9.17;;
4450;SDS011;2238;50.180;9.230;2023-02-22T16:29:23;22.73;;;10.00;;
4450;SDS011;2238;50.180;9.230;2023-02-22T16:32:25;11.97;;;10.27;;
4450;SDS011;2238;50.180;9.230;2023-02-22T16:35:27;13.73;;;10.50;;
4450;SDS011;2238;50.180;9.230;2023-02-22T16:38:29;15.20;;;11.50;;
4450;SDS011;2238;50.180;9.230;2023-02-22T16:41:32;14.07;;;11.43;;
4450;SDS011;2238;50.180;9.230;2023-02-22T16:44:32;14.80;;;10.90;;
4450;SDS011;2238;50.180;9.230;2023-02-22T16:47:33;12.67;;;11.17;;
4450;SDS011;2238;50.180;9.230;2023-02-22T16:50:34;13.60;;;11.67;;
4450;SDS011;2238;50.180;9.230;2023-02-22T16:53:34;18.27;;;15.07;;
4450;SDS011;2238;50.180;9.230;2023-02-22T16:56:36;15.50;;;11.97;;
4450;SDS011;2238;50.180;9.230;2023-02-22T16:59:39;14.40;;;12.47;;
4450;SDS011;2238;50.180;9.230;2023-02-22T17:02:39;14.33;;;12.13;;
4450;SDS011;2238;50.180;9.230;2023-02-22T17:05:40;14.10;;;12.40;;
4450;SDS011;2238;50.180;9.230;2023-02-22T17:08:41;17.20;;;13.40;;
4450;SDS011;2238;50.180;9.230;2023-02-22T17:11:42;15.03;;;13.20;;
4450;SDS011;2238;50.180;9.230;2023-02-22T17:14:43;18.10;;;13.20;;
4450;SDS011;2238;50.180;9.230;2023-02-22T17:17:45;17.00;;;12.73;;
4450;SDS011;2238;50.180;9.230;2023-02-22T17:20:46;15.67;;;12.87;;
4450;SDS011;2238;50.180;9.230;2023-02-22T17:23:47;15.13;;;12.73;;
4450;SDS011;2238;50.180;9.230;2023-02-22T17:26:48;16.92;;;13.25;;
4450;SDS011;2238;50.180;9.230;2023-02-22T17:29:51;17.80;;;13.10;;
4450;SDS011;2238;50.180;9.230;2023-02-22T17:32:52;15.20;;;11.83;;
4450;SDS011;2238;50.180;9.230;2023-02-22T17:35:55;13.30;;;10.37;;
4450;SDS011;2238;50.180;9.230;2023-02-22T17:38:57;12.27;;;10.30;;
4450;SDS011;2238;50.180;9.230;2023-02-22T17:41:58;14.23;;;10.70;;
4450;SDS011;2238;50.180;9.230;2023-02-22T17:44:59;11.60;;;10.40;;
4450;SDS011;2238;50.180;9.230;2023-02-22T17:48:00;13.70;;;10.77;;
4450;SDS011;2238;50.180;9.230;2023-02-22T17:51:04;12.60;;;10.10;;
4450;SDS011;2238;50.180;9.230;2023-02-22T17:54:05;12.40;;;10.40;;
4450;SDS011;2238;50.180;9.230;2023-02-22T17:57:06;14.43;;;12.50;;
4450;SDS011;2238;50.180;9.230;2023-02-22T18:00:07;19.80;;;16.17;;
4450;SDS011;2238;50.180;9.230;2023-02-22T18:03:15;15.13;;;13.53;;
4450;SDS011;2238;50.180;9.230;2023-02-22T18:06:20;21.03;;;15.20;;
4450;SDS011;2238;50.180;9.230;2023-02-22T18:09:24;18.20;;;12.87;;
4450;SDS011;2238;50.180;9.230;2023-02-22T18:12:25;15.57;;;13.70;;
4450;SDS011;2238;50.180;9.230;2023-02-22T18:15:26;15.60;;;12.73;;
4450;SDS011;2238;50.180;9.230;2023-02-22T18:18:28;16.87;;;13.40;;
4450;SDS011;2238;50.180;9.230;2023-02-22T18:21:29;16.13;;;14.17;;
4450;SDS011;2238;50.180;9.230;2023-02-22T18:24:30;19.23;;;13.33;;
4450;SDS011;2238;50.180;9.230;2023-02-22T18:27:32;18.80;;;14.43;;
4450;SDS011;2238;50.180;9.230;2023-02-22T18:30:33;19.53;;;16.00;;
4450;SDS011;2238;50.180;9.230;2023-02-22T18:33:35;22.93;;;16.50;;
4450;SDS011;2238;50.180;9.230;2023-02-22T18:36:36;19.73;;;17.33;;
4450;SDS011;2238;50.180;9.230;2023-02-22T18:39:37;19.37;;;15.37;;
4450;SDS011;2238;50.180;9.230;2023-02-22T18:42:41;23.10;;;16.90;;
4450;SDS011;2238;50.180;9.230;2023-02-22T18:45:42;20.60;;;15.70;;
4450;SDS011;2238;50.180;9.230;2023-02-22T18:48:43;19.47;;;15.33;;
4450;SDS011;2238;50.180;9.230;2023-02-22T18:51:44;21.93;;;17.20;;
4450;SDS011;2238;50.180;9.230;2023-02-22T18:54:47;20.20;;;16.17;;
4450;SDS011;2238;50.180;9.230;2023-02-22T18:57:48;19.80;;;16.20;;
4450;SDS011;2238;50.180;9.230;2023-02-22T19:00:52;20.10;;;15.63;;
4450;SDS011;2238;50.180;9.230;2023-02-22T19:03:53;22.23;;;15.40;;
4450;SDS011;2238;50.180;9.230;2023-02-22T19:06:54;21.93;;;16.50;;
4450;SDS011;2238;50.180;9.230;2023-02-22T19:09:56;20.53;;;16.57;;
4450;SDS011;2238;50.180;9.230;2023-02-22T19:12:57;18.73;;;16.73;;
4450;SDS011;2238;50.180;9.230;2023-02-22T19:15:59;23.80;;;18.47;;
4450;SDS011;2238;50.180;9.230;2023-02-22T19:19:01;28.43;;;20.83;;
4450;SDS011;2238;50.180;9.230;2023-02-22T19:22:02;25.07;;;19.57;;
4450;SDS011;2238;50.180;9.230;2023-02-22T19:25:04;23.23;;;19.07;;
4450;SDS011;2238;50.180;9.230;2023-02-22T19:28:05;25.40;;;18.40;;
4450;SDS011;2238;50.180;9.230;2023-02-22T19:31:12;23.50;;;18.00;;
4450;SDS011;2238;50.180;9.230;2023-02-22T19:34:14;24.33;;;19.00;;
4450;SDS011;2238;50.180;9.230;2023-02-22T19:37:15;20.27;;;16.90;;
4450;SDS011;2238;50.180;9.230;2023-02-22T19:40:21;20.73;;;17.90;;
4450;SDS011;2238;50.180;9.230;2023-02-22T19:43:22;20.73;;;16.83;;
4450;SDS011;2238;50.180;9.230;2023-02-22T19:46:22;23.60;;;18.30;;
4450;SDS011;2238;50.180;9.230;2023-02-22T19:49:24;23.60;;;17.07;;
4450;SDS011;2238;50.180;9.230;2023-02-22T19:52:26;20.93;;;16.60;;
4450;SDS011;2238;50.180;9.230;2023-02-22T19:55:27;23.87;;;18.10;;
4450;SDS011;2238;50.180;9.230;2023-02-22T19:58:31;24.20;;;18.73;;
4450;SDS011;2238;50.180;9.230;2023-02-22T20:01:35;24.73;;;18.73;;
4450;SDS011;2238;50.180;9.230;2023-02-22T20:04:36;28.70;;;19.20;;
4450;SDS011;2238;50.180;9.230;2023-02-22T20:07:36;26.07;;;20.97;;
4450;SDS011;2238;50.180;9.230;2023-02-22T20:10:37;23.97;;;20.00;;
4450;SDS011;2238;50.180;9.230;2023-02-22T20:13:38;26.80;;;18.67;;
4450;SDS011;2238;50.180;9.230;2023-02-22T20:16:40;23.97;;;19.20;;
4450;SDS011;2238;50.180;9.230;2023-02-22T20:19:40;24.90;;;19.60;;
4450;SDS011;2238;50.180;9.230;2023-02-22T20:22:42;27.20;;;20.67;;
4450;SDS011;2238;50.180;9.230;2023-02-22T20:25:49;24.20;;;19.07;;
4450;SDS011;2238;50.180;9.230;2023-02-22T20:28:54;22.50;;;18.50;;
4450;SDS011;2238;50.180;9.230;2023-02-22T20:31:56;24.80;;;17.60;;
4450;SDS011;2238;50.180;9.230;2023-02-22T20:35:00;25.50;;;19.40;;
4450;SDS011;2238;50.180;9.230;2023-02-22T20:38:01;24.57;;;18.93;;
4450;SDS011;2238;50.180;9.230;2023-02-22T20:41:05;26.73;;;17.27;;
4450;SDS011;2238;50.180;9.230;2023-02-22T20:44:13;24.33;;;19.27;;
4450;SDS011;2238;50.180;9.230;2023-02-22T20:47:15;28.50;;;23.13;;
4450;SDS011;2238;50.180;9.230;2023-02-22T20:50:16;27.70;;;21.27;;
4450;SDS011;2238;50.180;9.230;2023-02-22T20:53:17;34.03;;;24.73;;